sensor_id;sensor_type;location;lat;lon;timestamp;P1;durP1;ratioP1;P2;durP2;ratioP2
10052;SDS011;52418;53.134;8.236;2022-07-03T00:00:11;0.90;;;0.90;;
10052;SDS011;52418;53.134;8.236;2022-07-03T00:02:37;0.90;;;0.90;;
10052;SDS011;52418;53.134;8.236;2022-07-03T00:05:02;0.90;;;0.90;;
10052;SDS011;52418;53.134;8.236;2022-07-03T00:07:27;0.90;;;0.90;;
10052;SDS011;52418;53.134;8.236;2022-07-03T00:09:53;0.90;;;0.90;;
10052;SDS011;52418;53.134;8.236;2022-07-03T00:12:18;0.90;;;0.90;;
10052;SDS011;52418;53.134;8.236;2022-07-03T00:14:43;0.98;;;0.98;;
10052;SDS011;52418;53.134;8.236;2022-07-03T00:17:08;0.90;;;0.90;;
10052;SDS011;52418;53.134;8.236;2022-07-03T00:19:33;0.90;;;0.90;;
10052;SDS011;52418;53.134;8.236;2022-07-03T00:22:03;0.90;;;0.90;;
10052;SDS011;52418;53.134;8.236;2022-07-03T00:24:38;0.90;;;0.90;;
10052;SDS011;52418;53.134;8.236;2022-07-03T00:27:05;0.80;;;0.80;;
10052;SDS011;52418;53.134;8.236;2022-07-03T00:29:38;0.90;;;0.90;;
10052;SDS011;52418;53.134;8.236;2022-07-03T00:32:06;0.90;;;0.90;;
10052;SDS011;52418;53.134;8.236;2022-07-03T00:34:32;0.90;;;0.90;;
10052;SDS011;52418;53.134;8.236;2022-07-03T00:36:58;0.90;;;0.90;;
10052;SDS011;52418;53.134;8.236;2022-07-03T00:39:26;0.90;;;0.90;;
10052;SDS011;52418;53.134;8.236;2022-07-03T00:44:47;0.90;;;0.90;;
10052;SDS011;52418;53.134;8.236;2022-07-03T00:47:13;0.90;;;0.90;;
10052;SDS011;52418;53.134;8.236;2022-07-03T00:49:39;0.90;;;0.90;;
10052;SDS011;52418;53.134;8.236;2022-07-03T00:52:05;1.00;;;1.00;;
10052;SDS011;52418;53.134;8.236;2022-07-03T00:54:34;0.90;;;0.90;;
10052;SDS011;52418;53.134;8.236;2022-07-03T00:57:00;0.90;;;0.90;;
10052;SDS011;52418;53.134;8.236;2022-07-03T00:59:25;0.90;;;0.90;;
10052;SDS011;52418;53.134;8.236;2022-07-03T01:01:52;1.00;;;1.00;;
10052;SDS011;52418;53.134;8.236;2022-07-03T01:06:49;0.80;;;0.80;;
10052;SDS011;52418;53.134;8.236;2022-07-03T01:09:15;0.93;;;0.93;;
10052;SDS011;52418;53.134;8.236;2022-07-03T01:11:48;0.90;;;0.90;;
10052;SDS011;52418;53.134;8.236;2022-07-03T01:14:24;0.90;;;0.90;;
10052;SDS011;52418;53.134;8.236;2022-07-03T01:16:59;0.90;;;0.90;;
10052;SDS011;52418;53.134;8.236;2022-07-03T01:24:37;0.90;;;0.90;;
10052;SDS011;52418;53.134;8.236;2022-07-03T01:27:06;0.90;;;0.90;;
10052;SDS011;52418;53.134;8.236;2022-07-03T01:29:38;0.90;;;0.90;;
10052;SDS011;52418;53.134;8.236;2022-07-03T01:32:05;0.88;;;0.88;;
10052;SDS011;52418;53.134;8.236;2022-07-03T01:37:01;0.90;;;0.90;;
10052;SDS011;52418;53.134;8.236;2022-07-03T01:39:27;0.80;;;0.80;;
10052;SDS011;52418;53.134;8.236;2022-07-03T01:41:53;0.90;;;0.90;;
10052;SDS011;52418;53.134;8.236;2022-07-03T01:44:20;0.90;;;0.90;;
10052;SDS011;52418;53.134;8.236;2022-07-03T01:46:46;0.85;;;0.85;;
10052;SDS011;52418;53.134;8.236;2022-07-03T01:49:12;0.90;;;0.90;;
10052;SDS011;52418;53.134;8.236;2022-07-03T01:51:38;0.90;;;0.90;;
10052;SDS011;52418;53.134;8.236;2022-07-03T01:54:03;0.90;;;0.90;;
10052;SDS011;52418;53.134;8.236;2022-07-03T01:56:29;0.90;;;0.90;;
10052;SDS011;52418;53.134;8.236;2022-07-03T01:58:58;0.90;;;0.90;;
10052;SDS011;52418;53.134;8.236;2022-07-03T02:03:59;0.90;;;0.90;;
10052;SDS011;52418;53.134;8.236;2022-07-03T02:06:28;0.90;;;0.90;;
10052;SDS011;52418;53.134;8.236;2022-07-03T02:11:26;0.90;;;0.90;;
10052;SDS011;52418;53.134;8.236;2022-07-03T02:14:00;0.90;;;0.90;;
10052;SDS011;52418;53.134;8.236;2022-07-03T02:16:29;0.80;;;0.80;;
10052;SDS011;52418;53.134;8.236;2022-07-03T02:19:04;0.82;;;0.82;;
10052;SDS011;52418;53.134;8.236;2022-07-03T02:21:30;0.90;;;0.90;;
10052;SDS011;52418;53.134;8.236;2022-07-03T02:26:32;0.90;;;0.90;;
10052;SDS011;52418;53.134;8.236;2022-07-03T02:28:58;0.90;;;0.90;;
10052;SDS011;52418;53.134;8.236;2022-07-03T02:31:26;0.80;;;0.80;;
10052;SDS011;52418;53.134;8.236;2022-07-03T02:33:55;0.93;;;0.93;;
10052;SDS011;52418;53.134;8.236;2022-07-03T02:36:21;0.90;;;0.90;;
10052;SDS011;52418;53.134;8.236;2022-07-03T02:38:48;0.90;;;0.90;;
10052;SDS011;52418;53.134;8.236;2022-07-03T02:41:21;0.82;;;0.82;;
10052;SDS011;52418;53.134;8.236;2022-07-03T02:43:48;0.90;;;0.90;;
10052;SDS011;52418;53.134;8.236;2022-07-03T02:51:44;0.90;;;0.90;;
10052;SDS011;52418;53.134;8.236;2022-07-03T02:54:14;0.90;;;0.90;;
10052;SDS011;52418;53.134;8.236;2022-07-03T02:59:22;0.80;;;0.80;;
10052;SDS011;52418;53.134;8.236;2022-07-03T03:01:54;0.90;;;0.90;;
10052;SDS011;52418;53.134;8.236;2022-07-03T03:04:32;0.90;;;0.90;;
10052;SDS011;52418;53.134;8.236;2022-07-03T03:07:01;0.82;;;0.82;;
10052;SDS011;52418;53.134;8.236;2022-07-03T03:09:30;0.90;;;0.90;;
10052;SDS011;52418;53.134;8.236;2022-07-03T03:11:56;0.90;;;0.90;;
10052;SDS011;52418;53.134;8.236;2022-07-03T03:14:25;0.90;;;0.90;;
10052;SDS011;52418;53.134;8.236;2022-07-03T03:16:53;0.80;;;0.80;;
10052;SDS011;52418;53.134;8.236;2022-07-03T03:19:22;0.85;;;0.85;;
10052;SDS011;52418;53.134;8.236;2022-07-03T03:24:48;0.80;;;0.80;;
10052;SDS011;52418;53.134;8.236;2022-07-03T03:27:13;0.80;;;0.80;;
10052;SDS011;52418;53.134;8.236;2022-07-03T03:29:39;0.80;;;0.80;;
10052;SDS011;52418;53.134;8.236;2022-07-03T03:32:04;0.80;;;0.80;;
10052;SDS011;52418;53.134;8.236;2022-07-03T03:34:30;0.90;;;0.90;;
10052;SDS011;52418;53.134;8.236;2022-07-03T03:36:56;0.90;;;0.90;;
10052;SDS011;52418;53.134;8.236;2022-07-03T03:39:21;0.90;;;0.90;;
10052;SDS011;52418;53.134;8.236;2022-07-03T03:41:47;0.90;;;0.90;;
10052;SDS011;52418;53.134;8.236;2022-07-03T03:44:12;0.90;;;0.90;;
10052;SDS011;52418;53.134;8.236;2022-07-03T03:46:37;0.90;;;0.90;;
10052;SDS011;52418;53.134;8.236;2022-07-03T03:49:02;0.90;;;0.90;;
10052;SDS011;52418;53.134;8.236;2022-07-03T03:51:27;0.90;;;0.90;;
10052;SDS011;52418;53.134;8.236;2022-07-03T03:53:53;0.90;;;0.90;;
10052;SDS011;52418;53.134;8.236;2022-07-03T03:56:18;0.90;;;0.90;;
10052;SDS011;52418;53.134;8.236;2022-07-03T03:58:43;0.90;;;0.90;;
10052;SDS011;52418;53.134;8.236;2022-07-03T04:01:09;0.90;;;0.90;;
10052;SDS011;52418;53.134;8.236;2022-07-03T04:03:34;0.90;;;0.90;;
10052;SDS011;52418;53.134;8.236;2022-07-03T04:06:00;0.80;;;0.80;;
10052;SDS011;52418;53.134;8.236;2022-07-03T04:08:25;0.88;;;0.88;;
10052;SDS011;52418;53.134;8.236;2022-07-03T04:10:51;0.80;;;0.80;;
10052;SDS011;52418;53.134;8.236;2022-07-03T04:13:17;0.82;;;0.82;;
10052;SDS011;52418;53.134;8.236;2022-07-03T04:15:44;0.88;;;0.88;;
10052;SDS011;52418;53.134;8.236;2022-07-03T04:18:09;0.80;;;0.80;;
10052;SDS011;52418;53.134;8.236;2022-07-03T04:20:35;0.80;;;0.80;;
10052;SDS011;52418;53.134;8.236;2022-07-03T04:23:00;0.80;;;0.80;;
10052;SDS011;52418;53.134;8.236;2022-07-03T04:25:26;0.90;;;0.90;;
10052;SDS011;52418;53.134;8.236;2022-07-03T04:27:51;0.80;;;0.80;;
10052;SDS011;52418;53.134;8.236;2022-07-03T04:30:16;0.80;;;0.80;;
10052;SDS011;52418;53.134;8.236;2022-07-03T04:32:42;0.82;;;0.82;;
10052;SDS011;52418;53.134;8.236;2022-07-03T04:35:07;0.90;;;0.90;;
10052;SDS011;52418;53.134;8.236;2022-07-03T04:37:32;0.90;;;0.90;;
10052;SDS011;52418;53.134;8.236;2022-07-03T04:39:58;0.88;;;0.88;;
10052;SDS011;52418;53.134;8.236;2022-07-03T04:42:23;0.90;;;0.90;;
10052;SDS011;52418;53.134;8.236;2022-07-03T04:44:48;0.80;;;0.80;;
10052;SDS011;52418;53.134;8.236;2022-07-03T04:47:13;0.90;;;0.90;;
10052;SDS011;52418;53.134;8.236;2022-07-03T04:49:40;0.82;;;0.82;;
10052;SDS011;52418;53.134;8.236;2022-07-03T04:52:05;0.80;;;0.80;;
10052;SDS011;52418;53.134;8.236;2022-07-03T04:54:30;0.90;;;0.90;;
10052;SDS011;52418;53.134;8.236;2022-07-03T04:56:55;0.80;;;0.80;;
10052;SDS011;52418;53.134;8.236;2022-07-03T04:59:21;0.80;;;0.80;;
10052;SDS011;52418;53.134;8.236;2022-07-03T05:01:46;0.80;;;0.80;;
10052;SDS011;52418;53.134;8.236;2022-07-03T05:04:12;0.80;;;0.80;;
10052;SDS011;52418;53.134;8.236;2022-07-03T05:06:38;0.90;;;0.90;;
10052;SDS011;52418;53.134;8.236;2022-07-03T05:09:03;0.90;;;0.90;;
10052;SDS011;52418;53.134;8.236;2022-07-03T05:11:28;0.90;;;0.90;;
10052;SDS011;52418;53.134;8.236;2022-07-03T05:13:53;0.80;;;0.80;;
10052;SDS011;52418;53.134;8.236;2022-07-03T05:16:18;0.90;;;0.90;;
10052;SDS011;52418;53.134;8.236;2022-07-03T05:18:44;0.90;;;0.90;;
10052;SDS011;52418;53.134;8.236;2022-07-03T05:21:09;0.80;;;0.80;;
10052;SDS011;52418;53.134;8.236;2022-07-03T05:23:34;0.82;;;0.82;;
10052;SDS011;52418;53.134;8.236;2022-07-03T05:25:59;0.80;;;0.80;;
10052;SDS011;52418;53.134;8.236;2022-07-03T05:28:25;0.95;;;0.95;;
10052;SDS011;52418;53.134;8.236;2022-07-03T05:30:50;0.90;;;0.90;;
10052;SDS011;52418;53.134;8.236;2022-07-03T05:33:15;0.90;;;0.90;;
10052;SDS011;52418;53.134;8.236;2022-07-03T05:35:40;0.80;;;0.80;;
10052;SDS011;52418;53.134;8.236;2022-07-03T05:38:06;0.90;;;0.90;;
10052;SDS011;52418;53.134;8.236;2022-07-03T05:40:31;1.00;;;1.00;;
10052;SDS011;52418;53.134;8.236;2022-07-03T05:42:56;1.02;;;1.02;;
10052;SDS011;52418;53.134;8.236;2022-07-03T05:45:21;0.90;;;0.90;;
10052;SDS011;52418;53.134;8.236;2022-07-03T05:47:46;1.00;;;1.00;;
10052;SDS011;52418;53.134;8.236;2022-07-03T05:50:12;0.90;;;0.90;;
10052;SDS011;52418;53.134;8.236;2022-07-03T05:52:37;1.05;;;1.05;;
10052;SDS011;52418;53.134;8.236;2022-07-03T05:57:30;1.00;;;1.00;;
10052;SDS011;52418;53.134;8.236;2022-07-03T05:59:56;1.00;;;1.00;;
10052;SDS011;52418;53.134;8.236;2022-07-03T06:02:39;1.00;;;1.00;;
10052;SDS011;52418;53.134;8.236;2022-07-03T06:05:05;1.10;;;1.10;;
10052;SDS011;52418;53.134;8.236;2022-07-03T06:07:30;1.10;;;1.10;;
10052;SDS011;52418;53.134;8.236;2022-07-03T06:10:05;1.10;;;1.10;;
10052;SDS011;52418;53.134;8.236;2022-07-03T06:12:31;1.10;;;1.10;;
10052;SDS011;52418;53.134;8.236;2022-07-03T06:14:56;1.00;;;1.00;;
10052;SDS011;52418;53.134;8.236;2022-07-03T06:17:21;1.00;;;1.00;;
10052;SDS011;52418;53.134;8.236;2022-07-03T06:19:54;1.10;;;1.10;;
10052;SDS011;52418;53.134;8.236;2022-07-03T06:25:22;1.10;;;1.10;;
10052;SDS011;52418;53.134;8.236;2022-07-03T06:27:50;1.00;;;1.00;;
10052;SDS011;52418;53.134;8.236;2022-07-03T06:30:15;1.10;;;1.10;;
10052;SDS011;52418;53.134;8.236;2022-07-03T06:32:41;1.10;;;1.10;;
10052;SDS011;52418;53.134;8.236;2022-07-03T06:35:07;1.10;;;1.10;;
10052;SDS011;52418;53.134;8.236;2022-07-03T06:37:32;1.10;;;1.10;;
10052;SDS011;52418;53.134;8.236;2022-07-03T06:39:58;1.10;;;1.10;;
10052;SDS011;52418;53.134;8.236;2022-07-03T06:42:23;1.00;;;1.00;;
10052;SDS011;52418;53.134;8.236;2022-07-03T06:44:48;1.10;;;1.10;;
10052;SDS011;52418;53.134;8.236;2022-07-03T06:47:13;1.00;;;1.00;;
10052;SDS011;52418;53.134;8.236;2022-07-03T06:49:38;1.00;;;1.00;;
10052;SDS011;52418;53.134;8.236;2022-07-03T06:52:04;1.00;;;1.00;;
10052;SDS011;52418;53.134;8.236;2022-07-03T06:54:29;1.00;;;1.00;;
10052;SDS011;52418;53.134;8.236;2022-07-03T06:56:54;1.08;;;1.08;;
10052;SDS011;52418;53.134;8.236;2022-07-03T06:59:19;1.00;;;1.00;;
10052;SDS011;52418;53.134;8.236;2022-07-03T07:01:44;0.93;;;0.93;;
10052;SDS011;52418;53.134;8.236;2022-07-03T07:04:10;1.00;;;1.00;;
10052;SDS011;52418;53.134;8.236;2022-07-03T07:06:35;1.00;;;1.00;;
10052;SDS011;52418;53.134;8.236;2022-07-03T07:09:01;1.10;;;1.10;;
10052;SDS011;52418;53.134;8.236;2022-07-03T07:11:26;1.00;;;1.00;;
10052;SDS011;52418;53.134;8.236;2022-07-03T07:13:51;1.10;;;1.10;;
10052;SDS011;52418;53.134;8.236;2022-07-03T07:16:16;1.10;;;1.10;;
10052;SDS011;52418;53.134;8.236;2022-07-03T07:18:42;0.93;;;0.93;;
10052;SDS011;52418;53.134;8.236;2022-07-03T07:21:07;1.00;;;1.00;;
10052;SDS011;52418;53.134;8.236;2022-07-03T07:23:33;1.00;;;1.00;;
10052;SDS011;52418;53.134;8.236;2022-07-03T07:25:58;1.10;;;1.10;;
10052;SDS011;52418;53.134;8.236;2022-07-03T07:28:23;1.00;;;1.00;;
10052;SDS011;52418;53.134;8.236;2022-07-03T07:30:49;1.10;;;1.10;;
10052;SDS011;52418;53.134;8.236;2022-07-03T07:33:14;1.10;;;1.10;;
10052;SDS011;52418;53.134;8.236;2022-07-03T07:35:39;1.00;;;1.00;;
10052;SDS011;52418;53.134;8.236;2022-07-03T07:38:04;1.10;;;1.10;;
10052;SDS011;52418;53.134;8.236;2022-07-03T07:40:29;0.98;;;0.98;;
10052;SDS011;52418;53.134;8.236;2022-07-03T07:42:54;1.20;;;1.20;;
10052;SDS011;52418;53.134;8.236;2022-07-03T07:45:20;1.03;;;1.03;;
10052;SDS011;52418;53.134;8.236;2022-07-03T07:47:45;1.00;;;1.00;;
10052;SDS011;52418;53.134;8.236;2022-07-03T07:50:10;1.10;;;1.10;;
10052;SDS011;52418;53.134;8.236;2022-07-03T07:52:36;1.10;;;1.10;;
10052;SDS011;52418;53.134;8.236;2022-07-03T07:55:01;1.10;;;1.10;;
10052;SDS011;52418;53.134;8.236;2022-07-03T07:57:33;1.00;;;1.00;;
10052;SDS011;52418;53.134;8.236;2022-07-03T07:59:58;1.10;;;1.10;;
10052;SDS011;52418;53.134;8.236;2022-07-03T08:02:23;1.10;;;1.10;;
10052;SDS011;52418;53.134;8.236;2022-07-03T08:05:08;1.10;;;1.10;;
10052;SDS011;52418;53.134;8.236;2022-07-03T08:07:52;1.20;;;1.20;;
10052;SDS011;52418;53.134;8.236;2022-07-03T08:10:17;1.20;;;1.20;;
10052;SDS011;52418;53.134;8.236;2022-07-03T08:12:43;1.08;;;1.08;;
10052;SDS011;52418;53.134;8.236;2022-07-03T08:15:08;1.10;;;1.10;;
10052;SDS011;52418;53.134;8.236;2022-07-03T08:17:34;1.10;;;1.10;;
10052;SDS011;52418;53.134;8.236;2022-07-03T08:19:59;1.13;;;1.13;;
10052;SDS011;52418;53.134;8.236;2022-07-03T08:22:24;1.13;;;1.13;;
10052;SDS011;52418;53.134;8.236;2022-07-03T08:24:49;1.10;;;1.10;;
10052;SDS011;52418;53.134;8.236;2022-07-03T08:29:43;1.30;;;1.30;;
10052;SDS011;52418;53.134;8.236;2022-07-03T08:32:08;1.05;;;1.05;;
10052;SDS011;52418;53.134;8.236;2022-07-03T08:34:34;1.10;;;1.10;;
10052;SDS011;52418;53.134;8.236;2022-07-03T08:37:00;1.20;;;1.20;;
10052;SDS011;52418;53.134;8.236;2022-07-03T08:39:25;1.10;;;1.10;;
10052;SDS011;52418;53.134;8.236;2022-07-03T08:41:50;1.10;;;1.10;;
10052;SDS011;52418;53.134;8.236;2022-07-03T08:44:16;1.10;;;1.10;;
10052;SDS011;52418;53.134;8.236;2022-07-03T08:46:42;1.20;;;1.20;;
10052;SDS011;52418;53.134;8.236;2022-07-03T08:49:07;1.10;;;1.10;;
10052;SDS011;52418;53.134;8.236;2022-07-03T08:51:34;1.20;;;1.20;;
10052;SDS011;52418;53.134;8.236;2022-07-03T08:53:59;1.20;;;1.20;;
10052;SDS011;52418;53.134;8.236;2022-07-03T08:56:26;1.10;;;1.10;;
10052;SDS011;52418;53.134;8.236;2022-07-03T08:58:51;1.10;;;1.10;;
10052;SDS011;52418;53.134;8.236;2022-07-03T09:01:17;1.13;;;1.13;;
10052;SDS011;52418;53.134;8.236;2022-07-03T09:03:42;1.20;;;1.20;;
10052;SDS011;52418;53.134;8.236;2022-07-03T09:06:08;1.13;;;1.13;;
10052;SDS011;52418;53.134;8.236;2022-07-03T09:08:33;1.10;;;1.10;;
10052;SDS011;52418;53.134;8.236;2022-07-03T09:10:59;1.10;;;1.10;;
10052;SDS011;52418;53.134;8.236;2022-07-03T09:13:24;1.20;;;1.20;;
10052;SDS011;52418;53.134;8.236;2022-07-03T09:15:49;1.20;;;1.20;;
10052;SDS011;52418;53.134;8.236;2022-07-03T09:18:14;1.20;;;1.20;;
10052;SDS011;52418;53.134;8.236;2022-07-03T09:20:40;1.20;;;1.20;;
10052;SDS011;52418;53.134;8.236;2022-07-03T09:25:34;1.20;;;1.20;;
10052;SDS011;52418;53.134;8.236;2022-07-03T09:27:59;1.10;;;1.10;;
10052;SDS011;52418;53.134;8.236;2022-07-03T09:30:26;1.10;;;1.10;;
10052;SDS011;52418;53.134;8.236;2022-07-03T09:32:51;1.20;;;1.20;;
10052;SDS011;52418;53.134;8.236;2022-07-03T09:37:49;1.20;;;1.20;;
10052;SDS011;52418;53.134;8.236;2022-07-03T09:40:16;1.30;;;1.30;;
10052;SDS011;52418;53.134;8.236;2022-07-03T09:42:56;1.20;;;1.20;;
10052;SDS011;52418;53.134;8.236;2022-07-03T09:45:21;1.20;;;1.20;;
10052;SDS011;52418;53.134;8.236;2022-07-03T09:47:46;1.20;;;1.20;;
10052;SDS011;52418;53.134;8.236;2022-07-03T09:50:11;1.20;;;1.20;;
10052;SDS011;52418;53.134;8.236;2022-07-03T09:52:39;1.10;;;1.10;;
10052;SDS011;52418;53.134;8.236;2022-07-03T09:55:12;1.10;;;1.10;;
10052;SDS011;52418;53.134;8.236;2022-07-03T09:57:38;1.00;;;1.00;;
10052;SDS011;52418;53.134;8.236;2022-07-03T10:02:36;1.10;;;1.10;;
10052;SDS011;52418;53.134;8.236;2022-07-03T10:05:11;1.10;;;1.10;;
10052;SDS011;52418;53.134;8.236;2022-07-03T10:07:49;1.10;;;1.10;;
10052;SDS011;52418;53.134;8.236;2022-07-03T10:10:14;1.10;;;1.10;;
10052;SDS011;52418;53.134;8.236;2022-07-03T10:12:39;1.15;;;1.15;;
10052;SDS011;52418;53.134;8.236;2022-07-03T10:15:04;1.20;;;1.20;;
10052;SDS011;52418;53.134;8.236;2022-07-03T10:17:30;1.10;;;1.10;;
10052;SDS011;52418;53.134;8.236;2022-07-03T10:19:55;1.10;;;1.10;;
10052;SDS011;52418;53.134;8.236;2022-07-03T10:22:21;1.10;;;1.10;;
10052;SDS011;52418;53.134;8.236;2022-07-03T10:24:47;1.10;;;1.10;;
10052;SDS011;52418;53.134;8.236;2022-07-03T10:27:13;1.10;;;1.10;;
10052;SDS011;52418;53.134;8.236;2022-07-03T10:29:39;1.00;;;1.00;;
10052;SDS011;52418;53.134;8.236;2022-07-03T10:32:05;1.00;;;1.00;;
10052;SDS011;52418;53.134;8.236;2022-07-03T10:34:30;1.20;;;1.20;;
10052;SDS011;52418;53.134;8.236;2022-07-03T10:36:57;1.10;;;1.10;;
10052;SDS011;52418;53.134;8.236;2022-07-03T10:39:35;1.10;;;1.10;;
10052;SDS011;52418;53.134;8.236;2022-07-03T10:42:03;1.20;;;1.20;;
10052;SDS011;52418;53.134;8.236;2022-07-03T10:44:51;1.20;;;1.20;;
10052;SDS011;52418;53.134;8.236;2022-07-03T10:47:36;1.10;;;1.10;;
10052;SDS011;52418;53.134;8.236;2022-07-03T10:50:02;1.10;;;1.10;;
10052;SDS011;52418;53.134;8.236;2022-07-03T10:52:28;1.00;;;1.00;;
10052;SDS011;52418;53.134;8.236;2022-07-03T10:54:54;1.00;;;1.00;;
10052;SDS011;52418;53.134;8.236;2022-07-03T10:57:21;1.05;;;1.05;;
10052;SDS011;52418;53.134;8.236;2022-07-03T11:15:29;1.13;;;1.13;;
10052;SDS011;52418;53.134;8.236;2022-07-03T11:18:07;1.10;;;1.10;;
10052;SDS011;52418;53.134;8.236;2022-07-03T11:20:34;1.00;;;1.00;;
10052;SDS011;52418;53.134;8.236;2022-07-03T11:23:00;1.10;;;1.10;;
10052;SDS011;52418;53.134;8.236;2022-07-03T11:25:36;1.20;;;1.20;;
10052;SDS011;52418;53.134;8.236;2022-07-03T11:28:02;1.10;;;1.10;;
10052;SDS011;52418;53.134;8.236;2022-07-03T11:30:28;1.10;;;1.10;;
10052;SDS011;52418;53.134;8.236;2022-07-03T11:32:54;1.10;;;1.10;;
10052;SDS011;52418;53.134;8.236;2022-07-03T11:38:06;1.15;;;1.15;;
10052;SDS011;52418;53.134;8.236;2022-07-03T11:40:31;1.10;;;1.10;;
10052;SDS011;52418;53.134;8.236;2022-07-03T11:43:00;1.17;;;1.17;;
10052;SDS011;52418;53.134;8.236;2022-07-03T11:45:28;1.10;;;1.10;;
10052;SDS011;52418;53.134;8.236;2022-07-03T11:47:53;1.08;;;1.08;;
10052;SDS011;52418;53.134;8.236;2022-07-03T11:50:18;1.20;;;1.20;;
10052;SDS011;52418;53.134;8.236;2022-07-03T11:52:46;1.07;;;1.07;;
10052;SDS011;52418;53.134;8.236;2022-07-03T11:55:11;1.20;;;1.20;;
10052;SDS011;52418;53.134;8.236;2022-07-03T11:57:36;1.10;;;1.10;;
10052;SDS011;52418;53.134;8.236;2022-07-03T12:00:04;1.20;;;1.20;;
10052;SDS011;52418;53.134;8.236;2022-07-03T12:02:30;1.20;;;1.20;;
10052;SDS011;52418;53.134;8.236;2022-07-03T12:04:55;1.20;;;1.20;;
10052;SDS011;52418;53.134;8.236;2022-07-03T12:07:20;1.20;;;1.20;;
10052;SDS011;52418;53.134;8.236;2022-07-03T12:09:49;1.20;;;1.20;;
10052;SDS011;52418;53.134;8.236;2022-07-03T12:12:14;1.10;;;1.10;;
10052;SDS011;52418;53.134;8.236;2022-07-03T12:17:06;1.20;;;1.20;;
10052;SDS011;52418;53.134;8.236;2022-07-03T12:19:31;1.13;;;1.13;;
10052;SDS011;52418;53.134;8.236;2022-07-03T12:21:57;1.20;;;1.20;;
10052;SDS011;52418;53.134;8.236;2022-07-03T12:24:22;1.13;;;1.13;;
10052;SDS011;52418;53.134;8.236;2022-07-03T12:26:47;1.10;;;1.10;;
10052;SDS011;52418;53.134;8.236;2022-07-03T12:29:13;1.10;;;1.10;;
10052;SDS011;52418;53.134;8.236;2022-07-03T12:31:43;1.10;;;1.10;;
10052;SDS011;52418;53.134;8.236;2022-07-03T12:34:10;1.10;;;1.10;;
10052;SDS011;52418;53.134;8.236;2022-07-03T12:36:35;1.10;;;1.10;;
10052;SDS011;52418;53.134;8.236;2022-07-03T12:39:00;1.10;;;1.10;;
10052;SDS011;52418;53.134;8.236;2022-07-03T12:41:26;1.10;;;1.10;;
10052;SDS011;52418;53.134;8.236;2022-07-03T12:43:53;0.93;;;0.93;;
10052;SDS011;52418;53.134;8.236;2022-07-03T12:48:47;1.00;;;1.00;;
10052;SDS011;52418;53.134;8.236;2022-07-03T12:51:16;1.00;;;1.00;;
10052;SDS011;52418;53.134;8.236;2022-07-03T12:53:41;1.10;;;1.10;;
10052;SDS011;52418;53.134;8.236;2022-07-03T12:56:07;1.10;;;1.10;;
10052;SDS011;52418;53.134;8.236;2022-07-03T12:58:39;1.10;;;1.10;;
10052;SDS011;52418;53.134;8.236;2022-07-03T13:03:48;1.20;;;1.20;;
10052;SDS011;52418;53.134;8.236;2022-07-03T13:06:14;1.13;;;1.13;;
10052;SDS011;52418;53.134;8.236;2022-07-03T13:08:48;1.20;;;1.20;;
10052;SDS011;52418;53.134;8.236;2022-07-03T13:11:13;1.20;;;1.20;;
10052;SDS011;52418;53.134;8.236;2022-07-03T13:13:47;1.15;;;1.15;;
10052;SDS011;52418;53.134;8.236;2022-07-03T13:16:22;1.00;;;1.00;;
10052;SDS011;52418;53.134;8.236;2022-07-03T13:18:59;1.17;;;1.17;;
10052;SDS011;52418;53.134;8.236;2022-07-03T13:21:25;1.20;;;1.20;;
10052;SDS011;52418;53.134;8.236;2022-07-03T13:23:50;1.10;;;1.10;;
10052;SDS011;52418;53.134;8.236;2022-07-03T13:26:15;1.10;;;1.10;;
10052;SDS011;52418;53.134;8.236;2022-07-03T13:28:40;1.20;;;1.20;;
10052;SDS011;52418;53.134;8.236;2022-07-03T13:31:06;1.10;;;1.10;;
10052;SDS011;52418;53.134;8.236;2022-07-03T13:33:31;1.10;;;1.10;;
10052;SDS011;52418;53.134;8.236;2022-07-03T13:35:56;1.10;;;1.10;;
10052;SDS011;52418;53.134;8.236;2022-07-03T13:38:21;1.17;;;1.17;;
10052;SDS011;52418;53.134;8.236;2022-07-03T13:40:46;1.10;;;1.10;;
10052;SDS011;52418;53.134;8.236;2022-07-03T13:43:27;1.20;;;1.20;;
10052;SDS011;52418;53.134;8.236;2022-07-03T13:45:52;1.10;;;1.10;;
10052;SDS011;52418;53.134;8.236;2022-07-03T13:48:17;1.10;;;1.10;;
10052;SDS011;52418;53.134;8.236;2022-07-03T13:50:43;1.00;;;1.00;;
10052;SDS011;52418;53.134;8.236;2022-07-03T13:53:09;1.00;;;1.00;;
10052;SDS011;52418;53.134;8.236;2022-07-03T13:55:34;1.20;;;1.20;;
10052;SDS011;52418;53.134;8.236;2022-07-03T13:58:00;1.00;;;1.00;;
10052;SDS011;52418;53.134;8.236;2022-07-03T14:00:36;1.10;;;1.10;;
10052;SDS011;52418;53.134;8.236;2022-07-03T14:05:43;1.10;;;1.10;;
10052;SDS011;52418;53.134;8.236;2022-07-03T14:08:15;1.10;;;1.10;;
10052;SDS011;52418;53.134;8.236;2022-07-03T14:10:40;1.10;;;1.10;;
10052;SDS011;52418;53.134;8.236;2022-07-03T14:13:07;1.00;;;1.00;;
10052;SDS011;52418;53.134;8.236;2022-07-03T14:15:32;1.00;;;1.00;;
10052;SDS011;52418;53.134;8.236;2022-07-03T14:17:59;1.10;;;1.10;;
10052;SDS011;52418;53.134;8.236;2022-07-03T14:20:26;1.10;;;1.10;;
10052;SDS011;52418;53.134;8.236;2022-07-03T14:22:51;1.10;;;1.10;;
10052;SDS011;52418;53.134;8.236;2022-07-03T14:25:17;1.10;;;1.10;;
10052;SDS011;52418;53.134;8.236;2022-07-03T14:27:42;1.08;;;1.08;;
10052;SDS011;52418;53.134;8.236;2022-07-03T14:30:26;1.15;;;1.15;;
10052;SDS011;52418;53.134;8.236;2022-07-03T14:33:10;1.20;;;1.20;;
10052;SDS011;52418;53.134;8.236;2022-07-03T14:35:35;1.00;;;1.00;;
10052;SDS011;52418;53.134;8.236;2022-07-03T14:38:00;1.10;;;1.10;;
10052;SDS011;52418;53.134;8.236;2022-07-03T14:40:25;1.10;;;1.10;;
10052;SDS011;52418;53.134;8.236;2022-07-03T14:42:51;1.02;;;1.02;;
10052;SDS011;52418;53.134;8.236;2022-07-03T14:45:16;1.10;;;1.10;;
10052;SDS011;52418;53.134;8.236;2022-07-03T14:47:41;1.10;;;1.10;;
10052;SDS011;52418;53.134;8.236;2022-07-03T14:50:06;1.10;;;1.10;;
10052;SDS011;52418;53.134;8.236;2022-07-03T14:52:32;1.00;;;1.00;;
10052;SDS011;52418;53.134;8.236;2022-07-03T14:54:57;1.00;;;1.00;;
10052;SDS011;52418;53.134;8.236;2022-07-03T15:02:32;1.00;;;1.00;;
10052;SDS011;52418;53.134;8.236;2022-07-03T15:07:26;1.08;;;1.08;;
10052;SDS011;52418;53.134;8.236;2022-07-03T15:10:03;1.10;;;1.10;;
10052;SDS011;52418;53.134;8.236;2022-07-03T15:12:30;1.10;;;1.10;;
10052;SDS011;52418;53.134;8.236;2022-07-03T15:14:55;1.00;;;1.00;;
10052;SDS011;52418;53.134;8.236;2022-07-03T15:17:22;1.00;;;1.00;;
10052;SDS011;52418;53.134;8.236;2022-07-03T15:19:47;1.00;;;1.00;;
10052;SDS011;52418;53.134;8.236;2022-07-03T15:22:13;1.00;;;1.00;;
10052;SDS011;52418;53.134;8.236;2022-07-03T15:24:40;1.10;;;1.10;;
10052;SDS011;52418;53.134;8.236;2022-07-03T15:27:06;1.05;;;1.05;;
10052;SDS011;52418;53.134;8.236;2022-07-03T15:29:31;1.00;;;1.00;;
10052;SDS011;52418;53.134;8.236;2022-07-03T15:32:00;1.00;;;1.00;;
10052;SDS011;52418;53.134;8.236;2022-07-03T15:34:25;1.02;;;1.02;;
10052;SDS011;52418;53.134;8.236;2022-07-03T15:36:51;1.00;;;1.00;;
10052;SDS011;52418;53.134;8.236;2022-07-03T15:39:37;1.00;;;1.00;;
10052;SDS011;52418;53.134;8.236;2022-07-03T15:44:53;1.00;;;1.00;;
10052;SDS011;52418;53.134;8.236;2022-07-03T15:49:52;1.00;;;1.00;;
10052;SDS011;52418;53.134;8.236;2022-07-03T15:52:19;1.00;;;1.00;;
10052;SDS011;52418;53.134;8.236;2022-07-03T15:54:51;1.10;;;1.10;;
10052;SDS011;52418;53.134;8.236;2022-07-03T15:59:42;1.10;;;1.10;;
10052;SDS011;52418;53.134;8.236;2022-07-03T16:02:10;1.10;;;1.10;;
10052;SDS011;52418;53.134;8.236;2022-07-03T16:07:10;1.20;;;1.20;;
10052;SDS011;52418;53.134;8.236;2022-07-03T16:09:37;1.20;;;1.20;;
10052;SDS011;52418;53.134;8.236;2022-07-03T16:12:02;1.10;;;1.10;;
10052;SDS011;52418;53.134;8.236;2022-07-03T16:14:31;1.08;;;1.08;;
10052;SDS011;52418;53.134;8.236;2022-07-03T16:16:57;1.00;;;1.00;;
10052;SDS011;52418;53.134;8.236;2022-07-03T16:19:25;1.10;;;1.10;;